Time,TemperatureF,DewpointF,PressureIn,WindDirection,WindDirectionDegrees,WindSpeedMPH,WindSpeedGustMPH,Humidity,HourlyPrecipIn,Conditions,Clouds,dailyrainin,SoftwareType,DateUTC
2013-04-09 00:00:00,59.5,50.3,29.87,North,-999,-999.0,-999.0,71,0.00,,,0.00,tws,2013-04-09 04:00:00,
2013-04-09 00:05:00,59.5,50.4,29.87,North,-999,-999.0,-999.0,71,0.00,,,0.00,tws,2013-04-09 04:05:00,
2013-04-09 00:10:00,59.7,50.3,29.87,North,-999,-999.0,-999.0,70,0.00,,,0.00,tws,2013-04-09 04:10:00,
2013-04-09 00:15:00,60.0,50.5,29.87,North,-999,-999.0,-999.0,70,0.00,,,0.00,tws,2013-04-09 04:15:00,
2013-04-09 00:20:00,60.0,50.6,29.87,North,-999,-999.0,-999.0,70,0.00,,,0.00,tws,2013-04-09 04:20:00,
2013-04-09 00:25:00,60.1,50.5,29.87,North,-999,-999.0,-999.0,70,0.00,,,0.00,tws,2013-04-09 04:25:00,
2013-04-09 00:30:00,60.0,50.5,29.87,North,-999,-999.0,-999.0,70,0.00,,,0.00,tws,2013-04-09 04:30:00,
2013-04-09 00:35:00,59.9,50.5,29.87,North,-999,-999.0,-999.0,70,0.00,,,0.00,tws,2013-04-09 04:35:00,
2013-04-09 00:40:00,60.1,50.6,29.87,North,-999,-999.0,-999.0,70,0.00,,,0.00,tws,2013-04-09 04:40:00,
2013-04-09 00:50:00,60.4,50.7,29.87,North,-999,-999.0,-999.0,70,0.00,,,0.00,tws,2013-04-09 04:50:00,
2013-04-09 00:55:00,60.3,50.6,29.87,North,-999,-999.0,-999.0,70,0.00,,,0.00,tws,2013-04-09 04:55:00,
2013-04-09 01:00:00,60.3,50.7,29.87,North,-999,-999.0,-999.0,70,0.00,,,0.00,tws,2013-04-09 05:00:00,
2013-04-09 01:05:00,60.2,50.7,29.87,North,-999,-999.0,-999.0,70,0.00,,,0.00,tws,2013-04-09 05:05:00,
2013-04-09 01:10:00,60.3,50.6,29.87,North,-999,-999.0,-999.0,69,0.00,,,0.00,tws,2013-04-09 05:10:00,
2013-04-09 01:15:00,60.5,50.8,29.87,North,-999,-999.0,-999.0,70,0.00,,,0.00,tws,2013-04-09 05:15:00,
2013-04-09 01:20:00,60.5,50.8,29.87,North,-999,-999.0,-999.0,70,0.00,,,0.00,tws,2013-04-09 05:20:00,
2013-04-09 01:25:00,60.6,50.7,29.88,North,-999,-999.0,-999.0,69,0.00,,,0.00,tws,2013-04-09 05:25:00,
2013-04-09 01:30:00,60.8,50.9,29.88,North,-999,-999.0,-999.0,69,0.00,,,0.00,tws,2013-04-09 05:30:00,
2013-04-09 01:35:00,60.8,50.8,29.88,North,-999,-999.0,-999.0,69,0.00,,,0.00,tws,2013-04-09 05:35:00,
2013-04-09 01:40:00,60.8,50.8,29.89,North,-999,-999.0,-999.0,69,0.00,,,0.00,tws,2013-04-09 05:40:00,
2013-04-09 01:45:00,61.0,50.9,29.89,North,-999,-999.0,-999.0,69,0.00,,,0.00,tws,2013-04-09 05:45:00,
2013-04-09 01:50:00,60.9,51.0,29.88,North,-999,-999.0,-999.0,69,0.00,,,0.00,tws,2013-04-09 05:50:00,
2013-04-09 01:55:00,60.8,50.9,29.88,North,-999,-999.0,-999.0,69,0.00,,,0.00,tws,2013-04-09 05:55:00,
2013-04-09 02:00:00,60.7,50.9,29.88,North,-999,-999.0,-999.0,69,0.00,,,0.00,tws,2013-04-09 06:00:00,
2013-04-09 02:05:00,60.6,50.8,29.88,North,-999,-999.0,-999.0,69,0.00,,,0.00,tws,2013-04-09 06:05:00,
2013-04-09 02:10:00,60.3,50.9,29.88,North,-999,-999.0,-999.0,70,0.00,,,0.00,tws,2013-04-09 06:10:00,
2013-04-09 02:15:00,60.1,50.7,29.88,North,-999,-999.0,-999.0,70,0.00,,,0.00,tws,2013-04-09 06:15:00,
2013-04-09 02:20:00,60.0,50.6,29.87,North,-999,-999.0,-999.0,71,0.00,,,0.00,tws,2013-04-09 06:20:00,
2013-04-09 02:25:00,59.8,50.7,29.87,North,-999,-999.0,-999.0,71,0.00,,,0.00,tws,2013-04-09 06:25:00,
2013-04-09 02:30:00,59.6,50.6,29.87,North,-999,-999.0,-999.0,71,0.00,,,0.00,tws,2013-04-09 06:30:00,
2013-04-09 02:35:00,59.7,50.7,29.87,North,-999,-999.0,-999.0,71,0.00,,,0.00,tws,2013-04-09 06:35:00,
2013-04-09 02:40:00,59.5,50.6,29.87,North,-999,-999.0,-999.0,72,0.00,,,0.00,tws,2013-04-09 06:40:00,
2013-04-09 02:45:00,59.1,50.5,29.87,North,-999,-999.0,-999.0,72,0.00,,,0.00,tws,2013-04-09 06:45:00,
2013-04-09 02:50:00,58.7,50.4,29.87,North,-999,-999.0,-999.0,73,0.00,,,0.00,tws,2013-04-09 06:50:00,
2013-04-09 02:55:00,58.4,50.4,29.87,North,-999,-999.0,-999.0,74,0.00,,,0.00,tws,2013-04-09 06:55:00,
2013-04-09 03:05:00,58.2,50.4,29.87,North,-999,-999.0,-999.0,75,0.00,,,0.00,tws,2013-04-09 07:05:00,
2013-04-09 03:15:00,57.7,50.0,29.87,North,-999,-999.0,-999.0,75,0.00,,,0.00,tws,2013-04-09 07:15:00,
2013-04-09 03:20:00,57.4,50.0,29.86,North,-999,-999.0,-999.0,76,0.00,,,0.00,tws,2013-04-09 07:20:00,
2013-04-09 03:25:00,57.2,50.0,29.87,North,-999,-999.0,-999.0,76,0.00,,,0.00,tws,2013-04-09 07:25:00,
2013-04-09 03:30:00,57.2,50.0,29.87,North,-999,-999.0,-999.0,76,0.00,,,0.00,tws,2013-04-09 07:30:00,
2013-04-09 03:35:00,57.2,49.9,29.87,North,-999,-999.0,-999.0,76,0.00,,,0.00,tws,2013-04-09 07:35:00,
2013-04-09 03:40:00,57.0,49.7,29.87,North,-999,-999.0,-999.0,76,0.00,,,0.00,tws,2013-04-09 07:40:00,
2013-04-09 03:45:00,56.7,49.6,29.87,North,-999,-999.0,-999.0,76,0.00,,,0.00,tws,2013-04-09 07:45:00,
2013-04-09 03:50:00,56.4,49.5,29.87,North,-999,-999.0,-999.0,77,0.00,,,0.00,tws,2013-04-09 07:50:00,
2013-04-09 03:55:00,56.3,49.6,29.87,North,-999,-999.0,-999.0,77,0.00,,,0.00,tws,2013-04-09 07:55:00,
2013-04-09 04:00:00,56.3,49.6,29.87,North,-999,-999.0,-999.0,77,0.00,,,0.00,tws,2013-04-09 08:00:00,
2013-04-09 04:10:00,56.1,49.4,29.87,North,-999,-999.0,-999.0,78,0.00,,,0.00,tws,2013-04-09 08:10:00,
2013-04-09 04:15:00,55.8,49.3,29.87,North,-999,-999.0,-999.0,78,0.00,,,0.00,tws,2013-04-09 08:15:00,
2013-04-09 04:20:00,55.4,48.9,29.87,North,-999,-999.0,-999.0,78,0.00,,,0.00,tws,2013-04-09 08:20:00,
2013-04-09 04:25:00,54.6,48.4,29.87,North,-999,-999.0,-999.0,79,0.00,,,0.00,tws,2013-04-09 08:25:00,
2013-04-09 04:30:00,54.0,48.0,29.88,North,-999,-999.0,-999.0,79,0.00,,,0.00,tws,2013-04-09 08:30:00,
2013-04-09 04:35:00,53.5,48.0,29.88,North,-999,-999.0,-999.0,81,0.00,,,0.00,tws,2013-04-09 08:35:00,
2013-04-09 04:40:00,53.1,47.9,29.88,North,-999,-999.0,-999.0,82,0.00,,,0.00,tws,2013-04-09 08:40:00,
2013-04-09 04:45:00,52.8,47.9,29.88,North,-999,-999.0,-999.0,83,0.00,,,0.00,tws,2013-04-09 08:45:00,
2013-04-09 04:50:00,52.6,47.7,29.88,North,-999,-999.0,-999.0,83,0.00,,,0.00,tws,2013-04-09 08:50:00,
2013-04-09 04:55:00,52.3,47.7,29.89,North,-999,-999.0,-999.0,84,0.00,,,0.00,tws,2013-04-09 08:55:00,
2013-04-09 05:00:00,52.1,47.7,29.89,North,-999,-999.0,-999.0,84,0.00,,,0.00,tws,2013-04-09 09:00:00,
2013-04-09 05:05:00,51.8,47.5,29.89,North,-999,-999.0,-999.0,85,0.00,,,0.00,tws,2013-04-09 09:05:00,
2013-04-09 05:10:00,51.5,47.5,29.89,North,-999,-999.0,-999.0,86,0.00,,,0.00,tws,2013-04-09 09:10:00,
2013-04-09 05:20:00,51.1,47.2,29.89,North,-999,-999.0,-999.0,86,0.00,,,0.00,tws,2013-04-09 09:20:00,
2013-04-09 05:25:00,50.9,47.2,29.89,North,-999,-999.0,-999.0,86,0.00,,,0.00,tws,2013-04-09 09:25:00,
2013-04-09 05:30:00,50.8,47.1,29.89,North,-999,-999.0,-999.0,87,0.00,,,0.00,tws,2013-04-09 09:30:00,
2013-04-09 05:35:00,50.6,47.0,29.90,North,-999,-999.0,-999.0,87,0.00,,,0.00,tws,2013-04-09 09:35:00,
2013-04-09 05:40:00,50.4,46.9,29.90,North,-999,-999.0,-999.0,87,0.00,,,0.00,tws,2013-04-09 09:40:00,
2013-04-09 05:45:00,50.1,46.6,29.90,North,-999,-999.0,-999.0,87,0.00,,,0.00,tws,2013-04-09 09:45:00,
2013-04-09 05:50:00,49.9,46.5,29.90,North,-999,-999.0,-999.0,87,0.00,,,0.00,tws,2013-04-09 09:50:00,
2013-04-09 05:55:00,49.7,0.0,29.90,North,-999,-999.0,-999.0,-128,0.00,,,0.00,tws,2013-04-09 09:55:00,
2013-04-09 06:05:00,49.5,46.7,29.90,North,-999,-999.0,-999.0,89,0.00,,,0.00,tws,2013-04-09 10:05:00,
2013-04-09 06:10:00,49.4,46.6,29.90,North,-999,-999.0,-999.0,90,0.00,,,0.00,tws,2013-04-09 10:10:00,
2013-04-09 06:15:00,49.2,46.4,29.90,North,-999,-999.0,-999.0,89,0.00,,,0.00,tws,2013-04-09 10:15:00,
2013-04-09 06:20:00,49.1,46.3,29.90,North,-999,-999.0,-999.0,90,0.00,,,0.00,tws,2013-04-09 10:20:00,
2013-04-09 06:30:00,48.8,46.3,29.91,North,-999,-999.0,-999.0,91,0.00,,,0.00,tws,2013-04-09 10:30:00,
2013-04-09 06:35:00,48.7,46.4,29.92,North,-999,-999.0,-999.0,91,0.00,,,0.00,tws,2013-04-09 10:35:00,
2013-04-09 06:40:00,48.6,46.2,29.92,North,-999,-999.0,-999.0,91,0.00,,,0.00,tws,2013-04-09 10:40:00,
2013-04-09 06:45:00,48.5,46.0,29.92,North,-999,-999.0,-999.0,91,0.00,,,0.00,tws,2013-04-09 10:45:00,
2013-04-09 06:50:00,48.3,45.9,29.92,North,-999,-999.0,-999.0,91,0.00,,,0.00,tws,2013-04-09 10:50:00,
2013-04-09 07:00:00,48.1,45.9,29.92,North,-999,-999.0,-999.0,91,0.00,,,0.00,tws,2013-04-09 11:00:00,
2013-04-09 07:05:00,48.1,46.0,29.93,North,-999,-999.0,-999.0,92,0.00,,,0.00,tws,2013-04-09 11:05:00,
2013-04-09 07:15:00,48.0,46.0,29.93,North,-999,-999.0,-999.0,92,0.00,,,0.00,tws,2013-04-09 11:15:00,
2013-04-09 07:20:00,48.0,46.0,29.93,North,-999,-999.0,-999.0,92,0.00,,,0.00,tws,2013-04-09 11:20:00,
2013-04-09 07:25:00,47.9,45.8,29.93,North,-999,-999.0,-999.0,92,0.00,,,0.00,tws,2013-04-09 11:25:00,
2013-04-09 07:30:00,47.9,45.8,29.93,North,-999,-999.0,-999.0,92,0.00,,,0.00,tws,2013-04-09 11:30:00,
2013-04-09 07:35:00,47.9,45.9,29.93,North,-999,-999.0,-999.0,92,0.00,,,0.00,tws,2013-04-09 11:35:00,
2013-04-09 07:40:00,48.1,46.2,29.93,North,-999,-999.0,-999.0,93,0.00,,,0.00,tws,2013-04-09 11:40:00,
2013-04-09 07:50:00,48.7,46.9,29.94,North,-999,-999.0,-999.0,93,0.00,,,0.00,tws,2013-04-09 11:50:00,
2013-04-09 08:00:00,49.2,47.3,29.95,North,-999,-999.0,-999.0,92,0.00,,,0.00,tws,2013-04-09 12:00:00,
2013-04-09 08:05:00,49.4,47.3,29.95,North,-999,-999.0,-999.0,92,0.00,,,0.00,tws,2013-04-09 12:05:00,
2013-04-09 08:10:00,49.8,47.6,29.95,North,-999,-999.0,-999.0,92,0.00,,,0.00,tws,2013-04-09 12:10:00,
2013-04-09 08:15:00,50.2,48.0,29.95,North,-999,-999.0,-999.0,92,0.00,,,0.00,tws,2013-04-09 12:15:00,
2013-04-09 08:20:00,50.7,48.4,29.95,North,-999,-999.0,-999.0,91,0.00,,,0.00,tws,2013-04-09 12:20:00,
2013-04-09 08:25:00,51.4,49.0,29.95,North,-999,-999.0,-999.0,91,0.00,,,0.00,tws,2013-04-09 12:25:00,
2013-04-09 08:35:00,53.1,50.4,29.95,North,-999,-999.0,-999.0,90,0.00,,,0.00,tws,2013-04-09 12:35:00,
2013-04-09 08:40:00,54.3,51.4,29.95,North,-999,-999.0,-999.0,89,0.00,,,0.00,tws,2013-04-09 12:40:00,
2013-04-09 08:45:00,55.7,51.2,29.95,North,-999,-999.0,-999.0,84,0.00,,,0.00,tws,2013-04-09 12:45:00,
2013-04-09 08:50:00,57.1,51.4,29.95,North,-999,-999.0,-999.0,81,0.00,,,0.00,tws,2013-04-09 12:50:00,
2013-04-09 09:00:00,59.3,52.8,29.96,North,-999,-999.0,-999.0,78,0.00,,,0.00,tws,2013-04-09 13:00:00,
2013-04-09 09:05:00,60.2,53.2,29.95,North,-999,-999.0,-999.0,77,0.00,,,0.00,tws,2013-04-09 13:05:00,
2013-04-09 09:10:00,61.0,53.6,29.96,North,-999,-999.0,-999.0,76,0.00,,,0.00,tws,2013-04-09 13:10:00,
2013-04-09 09:15:00,61.8,54.1,29.96,North,-999,-999.0,-999.0,75,0.00,,,0.00,tws,2013-04-09 13:15:00,
2013-04-09 09:25:00,62.9,54.0,29.96,North,-999,-999.0,-999.0,72,0.00,,,0.00,tws,2013-04-09 13:25:00,
2013-04-09 09:30:00,63.2,53.9,29.95,North,-999,-999.0,-999.0,71,0.00,,,0.00,tws,2013-04-09 13:30:00,
2013-04-09 09:35:00,63.5,53.9,29.95,North,-999,-999.0,-999.0,70,0.00,,,0.00,tws,2013-04-09 13:35:00,
2013-04-09 09:40:00,64.0,54.2,29.95,North,-999,-999.0,-999.0,70,0.00,,,0.00,tws,2013-04-09 13:40:00,
2013-04-09 09:50:00,65.1,54.6,29.95,North,-999,-999.0,-999.0,68,0.00,,,0.00,tws,2013-04-09 13:50:00,
2013-04-09 09:55:00,65.8,54.7,29.95,North,-999,-999.0,-999.0,67,0.00,,,0.00,tws,2013-04-09 13:55:00,
2013-04-09 10:00:00,67.4,55.0,29.95,North,-999,-999.0,-999.0,64,0.00,,,0.00,tws,2013-04-09 14:00:00,
2013-04-09 10:05:00,69.6,55.4,29.95,North,-999,-999.0,-999.0,60,0.00,,,0.00,tws,2013-04-09 14:05:00,
2013-04-09 10:10:00,69.8,54.8,29.96,North,-999,-999.0,-999.0,58,0.00,,,0.00,tws,2013-04-09 14:10:00,
2013-04-09 10:15:00,69.7,54.8,29.96,North,-999,-999.0,-999.0,58,0.00,,,0.00,tws,2013-04-09 14:15:00,
2013-04-09 10:20:00,69.6,54.9,29.96,North,-999,-999.0,-999.0,58,0.00,,,0.00,tws,2013-04-09 14:20:00,
2013-04-09 10:30:00,69.5,53.6,29.96,North,-999,-999.0,-999.0,56,0.00,,,0.00,tws,2013-04-09 14:30:00,
2013-04-09 10:35:00,69.7,54.0,29.96,North,-999,-999.0,-999.0,56,0.00,,,0.00,tws,2013-04-09 14:35:00,
2013-04-09 10:40:00,69.9,53.8,29.96,North,-999,-999.0,-999.0,56,0.00,,,0.00,tws,2013-04-09 14:40:00,
2013-04-09 10:50:00,70.7,54.0,29.96,North,-999,-999.0,-999.0,55,0.00,,,0.00,tws,2013-04-09 14:50:00,
2013-04-09 10:55:00,70.8,53.8,29.96,North,-999,-999.0,-999.0,54,0.00,,,0.00,tws,2013-04-09 14:55:00,
2013-04-09 11:00:00,70.8,53.4,29.96,North,-999,-999.0,-999.0,53,0.00,,,0.00,tws,2013-04-09 15:00:00,
2013-04-09 11:05:00,70.7,53.2,29.96,North,-999,-999.0,-999.0,53,0.00,,,0.00,tws,2013-04-09 15:05:00,
2013-04-09 11:15:00,71.5,54.1,29.96,North,-999,-999.0,-999.0,53,0.00,,,0.00,tws,2013-04-09 15:15:00,
2013-04-09 11:20:00,72.1,54.2,29.96,North,-999,-999.0,-999.0,52,0.00,,,0.00,tws,2013-04-09 15:20:00,
2013-04-09 11:25:00,72.5,54.2,29.95,North,-999,-999.0,-999.0,52,0.00,,,0.00,tws,2013-04-09 15:25:00,
2013-04-09 11:30:00,72.8,53.7,29.96,North,-999,-999.0,-999.0,50,0.00,,,0.00,tws,2013-04-09 15:30:00,
2013-04-09 11:40:00,72.9,53.5,29.95,North,-999,-999.0,-999.0,50,0.00,,,0.00,tws,2013-04-09 15:40:00,
2013-04-09 11:45:00,73.4,53.9,29.95,North,-999,-999.0,-999.0,50,0.00,,,0.00,tws,2013-04-09 15:45:00,
2013-04-09 11:50:00,73.7,53.4,29.95,North,-999,-999.0,-999.0,48,0.00,,,0.00,tws,2013-04-09 15:50:00,
2013-04-09 11:55:00,73.8,52.6,29.95,North,-999,-999.0,-999.0,46,0.00,,,0.00,tws,2013-04-09 15:55:00,
2013-04-09 12:00:00,73.8,52.4,29.95,North,-999,-999.0,-999.0,46,0.00,,,0.00,tws,2013-04-09 16:00:00,
2013-04-09 12:05:00,73.9,52.0,29.95,North,-999,-999.0,-999.0,45,0.00,,,0.00,tws,2013-04-09 16:05:00,
2013-04-09 12:10:00,74.0,52.7,29.95,North,-999,-999.0,-999.0,46,0.00,,,0.00,tws,2013-04-09 16:10:00,
2013-04-09 12:15:00,74.3,52.1,29.95,North,-999,-999.0,-999.0,45,0.00,,,0.00,tws,2013-04-09 16:15:00,
2013-04-09 12:20:00,74.4,52.5,29.95,North,-999,-999.0,-999.0,45,0.00,,,0.00,tws,2013-04-09 16:20:00,
2013-04-09 12:30:00,74.9,53.4,29.95,North,-999,-999.0,-999.0,46,0.00,,,0.00,tws,2013-04-09 16:30:00,
2013-04-09 12:35:00,75.3,53.1,29.95,North,-999,-999.0,-999.0,45,0.00,,,0.00,tws,2013-04-09 16:35:00,
2013-04-09 12:40:00,75.3,53.3,29.95,North,-999,-999.0,-999.0,45,0.00,,,0.00,tws,2013-04-09 16:40:00,
2013-04-09 12:45:00,75.8,53.8,29.95,North,-999,-999.0,-999.0,45,0.00,,,0.00,tws,2013-04-09 16:45:00,
2013-04-09 12:55:00,76.4,53.4,29.94,North,-999,-999.0,-999.0,44,0.00,,,0.00,tws,2013-04-09 16:55:00,
2013-04-09 13:00:00,76.6,54.2,29.94,North,-999,-999.0,-999.0,45,0.00,,,0.00,tws,2013-04-09 17:00:00,
2013-04-09 13:05:00,77.0,54.1,29.93,North,-999,-999.0,-999.0,44,0.00,,,0.00,tws,2013-04-09 17:05:00,
2013-04-09 13:10:00,77.3,54.9,29.93,North,-999,-999.0,-999.0,45,0.00,,,0.00,tws,2013-04-09 17:10:00,
2013-04-09 13:15:00,77.9,55.3,29.93,North,-999,-999.0,-999.0,45,0.00,,,0.00,tws,2013-04-09 17:15:00,
2013-04-09 13:20:00,78.1,55.2,29.93,North,-999,-999.0,-999.0,44,0.00,,,0.00,tws,2013-04-09 17:20:00,
2013-04-09 13:25:00,78.2,55.0,29.93,North,-999,-999.0,-999.0,44,0.00,,,0.00,tws,2013-04-09 17:25:00,
2013-04-09 13:35:00,79.0,55.5,29.92,North,-999,-999.0,-999.0,43,0.00,,,0.00,tws,2013-04-09 17:35:00,
2013-04-09 13:40:00,79.2,55.5,29.92,North,-999,-999.0,-999.0,43,0.00,,,0.00,tws,2013-04-09 17:40:00,
2013-04-09 13:45:00,79.4,55.8,29.92,North,-999,-999.0,-999.0,43,0.00,,,0.00,tws,2013-04-09 17:45:00,
2013-04-09 13:50:00,79.7,55.7,29.92,North,-999,-999.0,-999.0,43,0.00,,,0.00,tws,2013-04-09 17:50:00,
2013-04-09 13:55:00,80.0,55.5,29.92,North,-999,-999.0,-999.0,42,0.00,,,0.00,tws,2013-04-09 17:55:00,
2013-04-09 14:00:00,79.8,55.1,29.92,North,-999,-999.0,-999.0,42,0.00,,,0.00,tws,2013-04-09 18:00:00,
2013-04-09 14:10:00,80.2,55.4,29.92,North,-999,-999.0,-999.0,42,0.00,,,0.00,tws,2013-04-09 18:10:00,
2013-04-09 14:20:00,79.8,54.3,29.91,North,-999,-999.0,-999.0,40,0.00,,,0.00,tws,2013-04-09 18:20:00,
2013-04-09 14:25:00,80.0,54.2,29.91,North,-999,-999.0,-999.0,40,0.00,,,0.00,tws,2013-04-09 18:25:00,
2013-04-09 14:35:00,80.1,54.5,29.91,North,-999,-999.0,-999.0,40,0.00,,,0.00,tws,2013-04-09 18:35:00,
2013-04-09 14:40:00,79.8,53.9,29.90,North,-999,-999.0,-999.0,40,0.00,,,0.00,tws,2013-04-09 18:40:00,
2013-04-09 14:45:00,79.8,54.5,29.90,North,-999,-999.0,-999.0,41,0.00,,,0.00,tws,2013-04-09 18:45:00,
2013-04-09 14:50:00,80.0,54.5,29.90,North,-999,-999.0,-999.0,40,0.00,,,0.00,tws,2013-04-09 18:50:00,
2013-04-09 14:55:00,80.2,54.2,29.90,North,-999,-999.0,-999.0,40,0.00,,,0.00,tws,2013-04-09 18:55:00,
2013-04-09 15:00:00,80.2,53.7,29.90,North,-999,-999.0,-999.0,39,0.00,,,0.00,tws,2013-04-09 19:00:00,
2013-04-09 15:05:00,80.2,53.5,29.89,North,-999,-999.0,-999.0,39,0.00,,,0.00,tws,2013-04-09 19:05:00,
2013-04-09 15:10:00,80.3,53.6,29.89,North,-999,-999.0,-999.0,39,0.00,,,0.00,tws,2013-04-09 19:10:00,
2013-04-09 15:15:00,80.3,53.4,29.89,North,-999,-999.0,-999.0,38,0.00,,,0.00,tws,2013-04-09 19:15:00,
2013-04-09 15:25:00,80.1,53.1,29.89,North,-999,-999.0,-999.0,38,0.00,,,0.00,tws,2013-04-09 19:25:00,
2013-04-09 15:30:00,80.1,53.3,29.89,North,-999,-999.0,-999.0,39,0.00,,,0.00,tws,2013-04-09 19:30:00,
2013-04-09 15:35:00,80.1,53.1,29.88,North,-999,-999.0,-999.0,38,0.00,,,0.00,tws,2013-04-09 19:35:00,
2013-04-09 15:40:00,80.4,52.6,29.88,North,-999,-999.0,-999.0,37,0.00,,,0.00,tws,2013-04-09 19:40:00,
2013-04-09 15:50:00,80.9,52.8,29.88,North,-999,-999.0,-999.0,37,0.00,,,0.00,tws,2013-04-09 19:50:00,
2013-04-09 15:55:00,81.0,52.9,29.88,North,-999,-999.0,-999.0,37,0.00,,,0.00,tws,2013-04-09 19:55:00,
2013-04-09 16:00:00,81.1,53.4,29.88,North,-999,-999.0,-999.0,37,0.00,,,0.00,tws,2013-04-09 20:00:00,
2013-04-09 16:05:00,80.9,53.7,29.88,North,-999,-999.0,-999.0,38,0.00,,,0.00,tws,2013-04-09 20:05:00,
2013-04-09 16:10:00,80.6,54.0,29.87,North,-999,-999.0,-999.0,39,0.00,,,0.00,tws,2013-04-09 20:10:00,
2013-04-09 16:15:00,80.9,54.5,29.87,North,-999,-999.0,-999.0,39,0.00,,,0.00,tws,2013-04-09 20:15:00,
2013-04-09 16:25:00,80.8,53.6,29.86,North,-999,-999.0,-999.0,38,0.00,,,0.00,tws,2013-04-09 20:25:00,
2013-04-09 16:30:00,80.6,53.9,29.86,North,-999,-999.0,-999.0,39,0.00,,,0.00,tws,2013-04-09 20:30:00,
2013-04-09 16:35:00,80.7,54.6,29.86,North,-999,-999.0,-999.0,40,0.00,,,0.00,tws,2013-04-09 20:35:00,
2013-04-09 16:45:00,80.1,55.0,29.86,North,-999,-999.0,-999.0,41,0.00,,,0.00,tws,2013-04-09 20:45:00,
2013-04-09 16:50:00,79.3,54.8,29.86,North,-999,-999.0,-999.0,42,0.00,,,0.00,tws,2013-04-09 20:50:00,
2013-04-09 16:55:00,78.8,55.0,29.86,North,-999,-999.0,-999.0,43,0.00,,,0.00,tws,2013-04-09 20:55:00,
2013-04-09 17:00:00,79.3,55.1,29.86,North,-999,-999.0,-999.0,42,0.00,,,0.00,tws,2013-04-09 21:00:00,
2013-04-09 17:10:00,80.3,55.4,29.86,North,-999,-999.0,-999.0,41,0.00,,,0.00,tws,2013-04-09 21:10:00,
2013-04-09 17:20:00,81.0,56.0,29.86,North,-999,-999.0,-999.0,41,0.00,,,0.00,tws,2013-04-09 21:20:00,
2013-04-09 17:25:00,81.0,55.6,29.86,North,-999,-999.0,-999.0,41,0.00,,,0.00,tws,2013-04-09 21:25:00,
2013-04-09 17:35:00,80.5,55.6,29.86,North,-999,-999.0,-999.0,41,0.00,,,0.00,tws,2013-04-09 21:35:00,
2013-04-09 17:45:00,80.3,56.0,29.86,North,-999,-999.0,-999.0,42,0.00,,,0.00,tws,2013-04-09 21:45:00,
2013-04-09 17:50:00,80.0,56.2,29.86,North,-999,-999.0,-999.0,43,0.00,,,0.00,tws,2013-04-09 21:50:00,
2013-04-09 17:55:00,79.9,56.4,29.87,North,-999,-999.0,-999.0,43,0.00,,,0.00,tws,2013-04-09 21:55:00,
2013-04-09 18:00:00,79.7,56.4,29.87,North,-999,-999.0,-999.0,44,0.00,,,0.00,tws,2013-04-09 22:00:00,
2013-04-09 18:05:00,79.4,56.5,29.87,North,-999,-999.0,-999.0,44,0.00,,,0.00,tws,2013-04-09 22:05:00,
2013-04-09 18:15:00,78.6,56.1,29.86,North,-999,-999.0,-999.0,45,0.00,,,0.00,tws,2013-04-09 22:15:00,
2013-04-09 18:20:00,77.9,56.0,29.87,North,-999,-999.0,-999.0,46,0.00,,,0.00,tws,2013-04-09 22:20:00,
2013-04-09 18:25:00,77.5,56.0,29.87,North,-999,-999.0,-999.0,46,0.00,,,0.00,tws,2013-04-09 22:25:00,
2013-04-09 18:30:00,77.3,55.7,29.87,North,-999,-999.0,-999.0,46,0.00,,,0.00,tws,2013-04-09 22:30:00,
2013-04-09 18:35:00,77.1,55.8,29.87,North,-999,-999.0,-999.0,47,0.00,,,0.00,tws,2013-04-09 22:35:00,
2013-04-09 18:40:00,77.4,55.5,29.87,North,-999,-999.0,-999.0,46,0.00,,,0.00,tws,2013-04-09 22:40:00,
2013-04-09 18:45:00,77.2,55.7,29.87,North,-999,-999.0,-999.0,46,0.00,,,0.00,tws,2013-04-09 22:45:00,
2013-04-09 18:50:00,76.6,55.8,29.87,North,-999,-999.0,-999.0,48,0.00,,,0.00,tws,2013-04-09 22:50:00,
2013-04-09 18:55:00,76.0,55.4,29.87,North,-999,-999.0,-999.0,48,0.00,,,0.00,tws,2013-04-09 22:55:00,
2013-04-09 19:00:00,75.4,55.3,29.87,North,-999,-999.0,-999.0,49,0.00,,,0.00,tws,2013-04-09 23:00:00,
2013-04-09 19:10:00,74.5,55.2,29.87,North,-999,-999.0,-999.0,50,0.00,,,0.00,tws,2013-04-09 23:10:00,
2013-04-09 19:15:00,74.0,55.1,29.87,North,-999,-999.0,-999.0,51,0.00,,,0.00,tws,2013-04-09 23:15:00,
2013-04-09 19:20:00,73.5,55.0,29.87,North,-999,-999.0,-999.0,51,0.00,,,0.00,tws,2013-04-09 23:20:00,
2013-04-09 19:25:00,73.1,55.0,29.87,North,-999,-999.0,-999.0,52,0.00,,,0.00,tws,2013-04-09 23:25:00,
2013-04-09 19:30:00,72.7,54.9,29.87,North,-999,-999.0,-999.0,53,0.00,,,0.00,tws,2013-04-09 23:30:00,
2013-04-09 19:35:00,72.3,54.9,29.87,North,-999,-999.0,-999.0,53,0.00,,,0.00,tws,2013-04-09 23:35:00,
2013-04-09 19:40:00,71.9,54.9,29.87,North,-999,-999.0,-999.0,54,0.00,,,0.00,tws,2013-04-09 23:40:00,
2013-04-09 19:45:00,71.7,55.0,29.87,North,-999,-999.0,-999.0,55,0.00,,,0.00,tws,2013-04-09 23:45:00,
2013-04-09 19:50:00,71.3,54.9,29.87,North,-999,-999.0,-999.0,55,0.00,,,0.00,tws,2013-04-09 23:50:00,
2013-04-09 19:55:00,70.8,54.9,29.88,North,-999,-999.0,-999.0,56,0.00,,,0.00,tws,2013-04-09 23:55:00,
2013-04-09 20:00:00,70.6,55.1,29.88,North,-999,-999.0,-999.0,57,0.00,,,0.00,tws,2013-04-10 00:00:00,
2013-04-09 20:10:00,70.1,54.8,29.88,North,-999,-999.0,-999.0,57,0.00,,,0.00,tws,2013-04-10 00:10:00,
2013-04-09 20:15:00,69.9,54.8,29.88,North,-999,-999.0,-999.0,58,0.00,,,0.00,tws,2013-04-10 00:15:00,
2013-04-09 20:20:00,69.6,54.9,29.88,North,-999,-999.0,-999.0,59,0.00,,,0.00,tws,2013-04-10 00:20:00,
2013-04-09 20:25:00,69.4,55.3,29.88,North,-999,-999.0,-999.0,60,0.00,,,0.00,tws,2013-04-10 00:25:00,
2013-04-09 20:35:00,68.7,55.3,29.88,North,-999,-999.0,-999.0,61,0.00,,,0.00,tws,2013-04-10 00:35:00,
2013-04-09 20:40:00,68.4,55.0,29.89,North,-999,-999.0,-999.0,61,0.00,,,0.00,tws,2013-04-10 00:40:00,
2013-04-09 20:45:00,68.0,55.3,29.89,North,-999,-999.0,-999.0,63,0.00,,,0.00,tws,2013-04-10 00:45:00,
2013-04-09 20:50:00,67.6,55.4,29.89,North,-999,-999.0,-999.0,64,0.00,,,0.00,tws,2013-04-10 00:50:00,
2013-04-09 21:00:00,66.9,55.5,29.89,North,-999,-999.0,-999.0,66,0.00,,,0.00,tws,2013-04-10 01:00:00,
2013-04-09 21:05:00,66.5,55.2,29.89,North,-999,-999.0,-999.0,66,0.00,,,0.00,tws,2013-04-10 01:05:00,
2013-04-09 21:10:00,66.2,55.2,29.89,North,-999,-999.0,-999.0,67,0.00,,,0.00,tws,2013-04-10 01:10:00,
2013-04-09 21:15:00,65.8,55.1,29.90,North,-999,-999.0,-999.0,68,0.00,,,0.00,tws,2013-04-10 01:15:00,
2013-04-09 21:20:00,65.5,55.2,29.89,North,-999,-999.0,-999.0,69,0.00,,,0.00,tws,2013-04-10 01:20:00,
2013-04-09 21:25:00,65.1,55.2,29.89,North,-999,-999.0,-999.0,70,0.00,,,0.00,tws,2013-04-10 01:25:00,
2013-04-09 21:30:00,64.8,55.2,29.89,North,-999,-999.0,-999.0,70,0.00,,,0.00,tws,2013-04-10 01:30:00,
2013-04-09 21:35:00,64.7,55.2,29.89,North,-999,-999.0,-999.0,70,0.00,,,0.00,tws,2013-04-10 01:35:00,
2013-04-09 21:40:00,64.6,55.2,29.89,North,-999,-999.0,-999.0,71,0.00,,,0.00,tws,2013-04-10 01:40:00,
2013-04-09 21:45:00,64.4,55.1,29.89,North,-999,-999.0,-999.0,71,0.00,,,0.00,tws,2013-04-10 01:45:00,
2013-04-09 21:50:00,64.3,55.2,29.89,North,-999,-999.0,-999.0,72,0.00,,,0.00,tws,2013-04-10 01:50:00,
2013-04-09 21:55:00,64.1,55.1,29.89,North,-999,-999.0,-999.0,72,0.00,,,0.00,tws,2013-04-10 01:55:00,
2013-04-09 22:00:00,64.1,55.2,29.89,North,-999,-999.0,-999.0,72,0.00,,,0.00,tws,2013-04-10 02:00:00,
2013-04-09 22:05:00,64.0,55.0,29.90,North,-999,-999.0,-999.0,72,0.00,,,0.00,tws,2013-04-10 02:05:00,
2013-04-09 22:10:00,63.8,55.0,29.89,North,-999,-999.0,-999.0,72,0.00,,,0.00,tws,2013-04-10 02:10:00,
2013-04-09 22:15:00,63.6,54.8,29.89,North,-999,-999.0,-999.0,72,0.00,,,0.00,tws,2013-04-10 02:15:00,
2013-04-09 22:25:00,63.1,54.6,29.89,North,-999,-999.0,-999.0,73,0.00,,,0.00,tws,2013-04-10 02:25:00,
2013-04-09 22:30:00,62.8,54.5,29.89,North,-999,-999.0,-999.0,74,0.00,,,0.00,tws,2013-04-10 02:30:00,
2013-04-09 22:40:00,62.2,54.3,29.89,North,-999,-999.0,-999.0,74,0.00,,,0.00,tws,2013-04-10 02:40:00,
2013-04-09 22:45:00,61.9,54.2,29.89,North,-999,-999.0,-999.0,75,0.00,,,0.00,tws,2013-04-10 02:45:00,
2013-04-09 22:50:00,61.7,54.0,29.89,North,-999,-999.0,-999.0,75,0.00,,,0.00,tws,2013-04-10 02:50:00,
2013-04-09 22:55:00,61.4,53.8,29.89,North,-999,-999.0,-999.0,75,0.00,,,0.00,tws,2013-04-10 02:55:00,
2013-04-09 23:00:00,61.1,53.8,29.89,North,-999,-999.0,-999.0,76,0.00,,,0.00,tws,2013-04-10 03:00:00,
2013-04-09 23:05:00,60.9,53.7,29.89,North,-999,-999.0,-999.0,76,0.00,,,0.00,tws,2013-04-10 03:05:00,
2013-04-09 23:10:00,60.6,53.6,29.89,North,-999,-999.0,-999.0,77,0.00,,,0.00,tws,2013-04-10 03:10:00,
2013-04-09 23:15:00,60.3,53.6,29.89,North,-999,-999.0,-999.0,78,0.00,,,0.00,tws,2013-04-10 03:15:00,
2013-04-09 23:20:00,60.1,53.4,29.89,North,-999,-999.0,-999.0,78,0.00,,,0.00,tws,2013-04-10 03:20:00,
2013-04-09 23:25:00,60.0,53.4,29.89,North,-999,-999.0,-999.0,78,0.00,,,0.00,tws,2013-04-10 03:25:00,
2013-04-09 23:30:00,59.8,53.5,29.89,North,-999,-999.0,-999.0,79,0.00,,,0.00,tws,2013-04-10 03:30:00,
2013-04-09 23:35:00,59.7,53.4,29.89,North,-999,-999.0,-999.0,79,0.00,,,0.00,tws,2013-04-10 03:35:00,
2013-04-09 23:40:00,59.7,53.3,29.89,North,-999,-999.0,-999.0,79,0.00,,,0.00,tws,2013-04-10 03:40:00,
2013-04-09 23:45:00,59.5,53.2,29.89,North,-999,-999.0,-999.0,79,0.00,,,0.00,tws,2013-04-10 03:45:00,
2013-04-09 23:50:00,59.3,53.0,29.89,North,-999,-999.0,-999.0,79,0.00,,,0.00,tws,2013-04-10 03:50:00,
2013-04-09 23:55:00,59.3,53.4,29.89,North,-999,-999.0,-999.0,80,0.00,,,0.00,tws,2013-04-10 03:55:00,